createdAt,value
2017-04-07T00:00:46.585Z,0
2017-04-07T00:01:56.928Z,0
2017-04-07T00:03:06.958Z,0
2017-04-07T00:04:17.321Z,0
2017-04-07T00:05:27.371Z,0
2017-04-07T00:06:37.712Z,0
2017-04-07T00:07:47.739Z,0
2017-04-07T00:08:57.456Z,0
2017-04-07T00:10:07.819Z,0
2017-04-07T00:11:17.835Z,0
2017-04-07T00:12:28.176Z,0
2017-04-07T00:13:38.740Z,0
2017-04-07T00:14:49.071Z,0
2017-04-07T00:15:59.407Z,0
2017-04-07T00:17:09.431Z,0
2017-04-07T00:18:19.775Z,0
2017-04-07T00:19:29.503Z,0
2017-04-07T00:20:39.854Z,0
2017-04-07T00:21:50.212Z,0
2017-04-07T00:23:00.534Z,0
2017-04-07T00:24:10.546Z,0
2017-04-07T00:25:20.896Z,0
2017-04-07T00:26:31.229Z,0
2017-04-07T00:27:41.251Z,0
2017-04-07T00:28:51.601Z,0
2017-04-07T00:30:01.922Z,0
2017-04-07T00:31:12.244Z,0
2017-04-07T00:32:22.263Z,0
2017-04-07T00:33:32.273Z,0
2017-04-07T00:34:42.605Z,0
2017-04-07T00:35:52.638Z,0
2017-04-07T00:37:02.657Z,0
2017-04-07T00:38:12.991Z,0
2017-04-07T00:39:23.372Z,0
2017-04-07T00:40:33.706Z,0
2017-04-07T00:41:44.057Z,0
2017-04-07T00:42:54.080Z,0
2017-04-07T00:44:04.417Z,0
2017-04-07T00:45:14.761Z,0
2017-04-07T00:46:25.088Z,0
2017-04-07T00:47:34.799Z,0
2017-04-07T00:48:44.829Z,0
2017-04-07T00:49:55.153Z,0
2017-04-07T00:51:05.507Z,0
2017-04-07T00:52:15.870Z,0
2017-04-07T00:53:26.218Z,0
2017-04-07T00:54:36.557Z,0
2017-04-07T00:55:46.585Z,0
2017-04-07T00:56:56.947Z,0
2017-04-07T00:58:07.274Z,0
2017-04-07T00:59:17.293Z,0
2017-04-07T01:00:27.312Z,0
2017-04-07T01:01:37.635Z,0
2017-04-07T01:02:47.989Z,0
2017-04-07T01:03:58.329Z,0
2017-04-07T01:05:08.371Z,0
2017-04-07T01:06:18.377Z,0
2017-04-07T01:07:28.742Z,0
2017-04-07T01:08:39.081Z,0
2017-04-07T01:09:49.405Z,0
2017-04-07T01:10:59.748Z,0
2017-04-07T01:12:09.772Z,0
2017-04-07T01:13:19.491Z,0
2017-04-07T01:14:29.504Z,0
2017-04-07T01:15:39.848Z,0
2017-04-07T01:16:50.236Z,0
2017-04-07T01:18:00.627Z,0
2017-04-07T01:19:11.004Z,0
2017-04-07T01:20:21.342Z,0
2017-04-07T01:21:31.662Z,0
2017-04-07T01:22:42.010Z,0
2017-04-07T01:23:52.371Z,0
2017-04-07T01:25:02.712Z,0
2017-04-07T01:26:13.040Z,0
2017-04-07T01:27:23.374Z,0
2017-04-07T01:28:33.714Z,0
2017-04-07T01:29:44.062Z,0
2017-04-07T01:30:54.383Z,0
2017-04-07T01:32:04.716Z,0
2017-04-07T01:33:15.041Z,0
2017-04-07T01:34:25.411Z,0
2017-04-07T01:35:35.738Z,0
2017-04-07T01:36:46.116Z,0
2017-04-07T01:37:56.128Z,0
2017-04-07T01:39:06.464Z,0
2017-04-07T01:40:16.527Z,0
2017-04-07T01:41:26.573Z,0
2017-04-07T01:42:36.614Z,0
2017-04-07T01:43:46.320Z,0
2017-04-07T01:44:56.654Z,0
2017-04-07T01:46:06.990Z,0
2017-04-07T01:47:17.002Z,0
2017-04-07T01:48:27.014Z,0
2017-04-07T01:49:37.340Z,0
2017-04-07T01:50:47.358Z,0
2017-04-07T01:51:57.682Z,0
2017-04-07T01:53:08.073Z,0
2017-04-07T01:54:18.097Z,0
2017-04-07T01:55:28.118Z,0
2017-04-07T01:56:38.459Z,0
2017-04-07T01:57:48.798Z,0
2017-04-07T01:58:59.130Z,0
2017-04-07T02:00:09.163Z,0
2017-04-07T02:01:19.501Z,0
2017-04-07T02:02:29.523Z,0
2017-04-07T02:03:39.857Z,0
2017-04-07T02:04:50.180Z,0
2017-04-07T02:06:00.504Z,0
2017-04-07T02:07:10.850Z,0
2017-04-07T02:08:20.864Z,0
2017-04-07T02:09:31.189Z,0
2017-04-07T02:10:41.594Z,0
2017-04-07T02:11:51.939Z,0
2017-04-07T02:13:01.642Z,0
2017-04-07T02:14:11.979Z,0
2017-04-07T02:15:22.027Z,0
2017-04-07T02:16:32.346Z,0
2017-04-07T02:17:42.365Z,0
2017-04-07T02:18:52.708Z,0
2017-04-07T02:20:02.743Z,0
2017-04-07T02:21:12.769Z,0
2017-04-07T02:22:23.103Z,0
2017-04-07T02:23:33.116Z,0
2017-04-07T02:24:43.151Z,0
2017-04-07T02:25:53.490Z,0
2017-04-07T02:27:03.845Z,0
2017-04-07T02:28:13.877Z,0
2017-04-07T02:29:24.199Z,0
2017-04-07T02:30:34.546Z,0
2017-04-07T02:31:44.572Z,0
2017-04-07T02:32:54.909Z,0
2017-04-07T02:34:04.960Z,0
2017-04-07T02:35:14.988Z,0
2017-04-07T02:36:25.343Z,0
2017-04-07T02:37:35.675Z,0
2017-04-07T02:38:45.697Z,0
2017-04-07T02:39:55.723Z,0
2017-04-07T02:41:05.760Z,0
2017-04-07T02:42:16.073Z,0
2017-04-07T02:43:26.433Z,0
2017-04-07T02:44:36.785Z,0
2017-04-07T02:45:47.149Z,0
2017-04-07T02:46:57.469Z,0
2017-04-07T02:48:07.809Z,0
2017-04-07T02:49:18.153Z,0
2017-04-07T02:50:28.417Z,0
2017-04-07T02:51:38.196Z,0
2017-04-07T02:52:48.549Z,0
2017-04-07T02:53:58.885Z,0
2017-04-07T02:55:08.896Z,0
2017-04-07T02:56:18.924Z,0
2017-04-07T02:57:29.270Z,0
2017-04-07T02:58:39.602Z,0
2017-04-07T02:59:49.940Z,0
2017-04-07T03:01:00.279Z,0
2017-04-07T03:02:10.612Z,0
2017-04-07T03:33:04.771Z,0
2017-04-07T03:34:15.118Z,0
2017-04-07T03:35:25.140Z,0
2017-04-07T03:36:35.476Z,0
2017-04-07T03:37:45.801Z,0
2017-04-07T03:38:56.132Z,0
2017-04-07T03:40:06.487Z,0
2017-04-07T03:41:16.504Z,0
2017-04-07T03:42:26.521Z,0
2017-04-07T03:43:36.245Z,0
2017-04-07T03:44:46.580Z,0
2017-04-07T03:45:56.616Z,0
2017-04-07T03:47:06.943Z,0
2017-04-07T03:48:16.985Z,0
2017-04-07T03:49:27.014Z,0
2017-04-07T03:50:37.019Z,0
2017-04-07T03:51:47.349Z,0
2017-04-07T03:52:57.672Z,0
2017-04-07T03:54:08.002Z,0
2017-04-07T03:55:18.349Z,0
2017-04-07T03:56:28.366Z,0
2017-04-07T03:57:38.432Z,0
2017-04-07T03:58:48.766Z,0
2017-04-07T03:59:59.122Z,0
2017-04-07T04:01:08.828Z,0
2017-04-07T04:02:19.150Z,0
2017-04-07T04:03:29.177Z,0
2017-04-07T04:04:38.564Z,0
2017-04-07T04:05:48.592Z,0
2017-04-07T04:06:58.917Z,0
2017-04-07T04:08:08.944Z,0
2017-04-07T04:09:19.271Z,0
2017-04-07T04:10:29.611Z,0
2017-04-07T04:11:39.941Z,0
2017-04-07T04:12:50.284Z,0
2017-04-07T04:14:00.661Z,0
2017-04-07T04:15:11.015Z,0
2017-04-07T04:16:21.031Z,0
2017-04-07T04:17:31.370Z,0
2017-04-07T04:18:41.698Z,0
2017-04-07T04:19:52.051Z,0
2017-04-07T04:21:02.076Z,0
2017-04-07T04:22:12.441Z,0
2017-04-07T04:23:23.021Z,0
2017-04-07T04:24:33.368Z,0
2017-04-07T04:25:43.703Z,0
2017-04-07T04:26:54.055Z,0
2017-04-07T04:28:04.388Z,0
2017-04-07T04:29:14.738Z,0
2017-04-07T04:30:25.067Z,0
2017-04-07T04:31:35.084Z,0
2017-04-07T04:32:45.093Z,0
2017-04-07T04:33:55.127Z,0
2017-04-07T04:35:05.157Z,0
2017-04-07T04:36:15.501Z,5
2017-04-07T04:37:25.515Z,5
2017-04-07T04:38:35.833Z,5
2017-04-07T04:39:46.155Z,5
2017-04-07T04:40:56.496Z,5
2017-04-07T04:42:06.529Z,5
2017-04-07T04:43:16.875Z,5
2017-04-07T04:44:27.212Z,5
2017-04-07T04:45:37.262Z,5
2017-04-07T04:46:47.599Z,5
2017-04-07T04:47:57.292Z,5
2017-04-07T04:49:07.633Z,5
2017-04-07T04:50:17.970Z,5
2017-04-07T04:51:28.362Z,5
2017-04-07T04:52:38.693Z,5
2017-04-07T04:53:48.714Z,5
2017-04-07T04:54:58.747Z,10
2017-04-07T04:56:08.785Z,10
2017-04-07T04:57:18.820Z,10
2017-04-07T04:58:29.160Z,10
2017-04-07T04:59:39.519Z,10
2017-04-07T05:00:48.912Z,10
2017-04-07T05:01:59.241Z,10
2017-04-07T05:03:09.569Z,15
2017-04-07T05:04:19.906Z,15
2017-04-07T05:05:29.928Z,15
2017-04-07T05:06:39.941Z,20
2017-04-07T05:07:49.976Z,20
2017-04-07T05:09:00.323Z,20
2017-04-07T05:10:10.654Z,25
2017-04-07T05:11:20.663Z,25
2017-04-07T05:12:31.011Z,30
2017-04-07T05:13:41.376Z,30
2017-04-07T05:14:51.402Z,30
2017-04-07T05:16:01.473Z,30
2017-04-07T05:17:11.810Z,25
2017-04-07T05:18:22.151Z,30
2017-04-07T05:19:32.165Z,30
2017-04-07T05:20:42.497Z,30
2017-04-07T05:21:52.830Z,35
2017-04-07T05:23:03.184Z,35
2017-04-07T05:24:13.502Z,35
2017-04-07T05:25:23.822Z,35
2017-04-07T05:26:34.159Z,45
2017-04-07T05:27:44.501Z,45
2017-04-07T05:28:54.556Z,50
2017-04-07T05:30:04.889Z,50
2017-04-07T05:31:15.235Z,50
2017-04-07T05:32:25.563Z,50
2017-04-07T05:33:35.583Z,50
2017-04-07T05:34:45.602Z,50
2017-04-07T05:35:55.316Z,55
2017-04-07T05:37:05.339Z,55
2017-04-07T05:38:15.675Z,60
2017-04-07T05:39:26.014Z,60
2017-04-07T05:40:36.030Z,60
2017-04-07T05:41:46.064Z,65
2017-04-07T05:42:56.389Z,65
2017-04-07T05:44:06.734Z,65
2017-04-07T05:45:17.063Z,65
2017-04-07T05:46:27.093Z,60
2017-04-07T05:47:37.424Z,55
2017-04-07T05:48:47.762Z,60
2017-04-07T05:49:58.108Z,55
2017-04-07T05:51:08.457Z,60
2017-04-07T05:52:18.162Z,60
2017-04-07T05:53:27.874Z,60
2017-04-07T05:54:37.587Z,55
2017-04-07T05:55:47.930Z,50
2017-04-07T05:56:57.942Z,50
2017-04-07T05:58:08.304Z,50
2017-04-07T05:59:18.013Z,50
2017-04-07T06:00:28.044Z,55
2017-04-07T06:01:38.047Z,55
2017-04-07T06:02:48.053Z,60
2017-04-07T06:03:58.379Z,60
2017-04-07T06:05:08.396Z,60
2017-04-07T06:06:18.113Z,60
2017-04-07T06:07:28.134Z,65
2017-04-07T06:08:38.471Z,65
2017-04-07T06:09:48.793Z,65
2017-04-07T06:10:59.393Z,70
2017-04-07T06:12:09.421Z,75
2017-04-07T06:13:19.753Z,75
2017-04-07T06:14:30.094Z,80
2017-04-07T06:15:40.435Z,80
2017-04-07T06:16:50.798Z,80
2017-04-07T06:18:01.138Z,80
2017-04-07T06:19:11.177Z,80
2017-04-07T06:20:21.503Z,80
2017-04-07T06:21:31.210Z,90
2017-04-07T06:22:41.522Z,85
2017-04-07T06:23:51.543Z,80
2017-04-07T06:25:01.883Z,75
2017-04-07T06:26:12.235Z,75
2017-04-07T06:27:22.563Z,75
2017-04-07T06:28:32.568Z,80
2017-04-07T06:29:42.888Z,80
2017-04-07T06:30:52.591Z,85
2017-04-07T06:32:02.949Z,100
2017-04-07T06:33:13.288Z,110
2017-04-07T06:34:23.309Z,115
2017-04-07T06:35:33.636Z,115
2017-04-07T06:36:43.663Z,115
2017-04-07T06:37:54.001Z,115
2017-04-07T06:39:04.023Z,110
2017-04-07T06:40:14.351Z,110
2017-04-07T06:41:24.375Z,110
2017-04-07T06:42:34.397Z,105
2017-04-07T06:43:44.408Z,100
2017-04-07T06:44:54.475Z,100
2017-04-07T06:46:04.803Z,100
2017-04-07T06:47:14.849Z,100
2017-04-07T06:48:25.189Z,95
2017-04-07T06:49:35.543Z,95
2017-04-07T06:50:45.549Z,110
2017-04-07T06:51:55.892Z,120
2017-04-07T06:53:06.247Z,115
2017-04-07T06:54:16.579Z,125
2017-04-07T06:55:26.590Z,135
2017-04-07T06:56:36.602Z,145
2017-04-07T06:57:46.329Z,160
2017-04-07T06:58:56.049Z,170
2017-04-07T07:00:06.392Z,175
2017-04-07T07:01:16.734Z,180
2017-04-07T07:02:27.067Z,175
2017-04-07T07:03:37.401Z,160
2017-04-07T07:04:47.425Z,140
2017-04-07T07:05:57.771Z,135
2017-04-07T07:07:08.107Z,130
2017-04-07T07:08:18.441Z,140
2017-04-07T07:09:28.757Z,150
2017-04-07T07:10:39.082Z,150
2017-04-07T07:11:49.425Z,145
2017-04-07T07:12:59.775Z,140
2017-04-07T07:14:10.137Z,140
2017-04-07T07:15:20.516Z,135
2017-04-07T07:16:30.832Z,135
2017-04-07T07:17:40.862Z,140
2017-04-07T07:18:51.195Z,145
2017-04-07T07:20:01.530Z,145
2017-04-07T07:21:11.873Z,145
2017-04-07T07:22:22.211Z,155
2017-04-07T07:23:32.269Z,175
2017-04-07T07:24:42.284Z,185
2017-04-07T07:25:52.608Z,190
2017-04-07T07:27:02.961Z,190
2017-04-07T07:28:13.308Z,190
2017-04-07T07:29:23.641Z,185
2017-04-07T07:30:33.671Z,175
2017-04-07T07:31:44.009Z,165
2017-04-07T07:32:54.021Z,160
2017-04-07T07:34:03.735Z,150
2017-04-07T07:35:14.075Z,145
2017-04-07T07:36:24.407Z,140
2017-04-07T07:37:34.756Z,135
2017-04-07T07:38:44.792Z,140
2017-04-07T07:39:55.127Z,140
2017-04-07T07:41:05.489Z,145
2017-04-07T07:42:15.850Z,140
2017-04-07T07:43:25.877Z,140
2017-04-07T07:44:36.234Z,135
2017-04-07T07:45:46.583Z,135
2017-04-07T07:46:56.903Z,130
2017-04-07T07:48:07.234Z,135
2017-04-07T07:49:17.558Z,140
2017-04-07T07:50:27.902Z,140
2017-04-07T07:51:37.929Z,145
2017-04-07T07:52:48.275Z,150
2017-04-07T07:53:58.280Z,145
2017-04-07T07:55:08.628Z,135
2017-04-07T07:56:18.973Z,130
2017-04-07T07:57:28.981Z,130
2017-04-07T07:58:38.719Z,130
2017-04-07T07:59:49.056Z,125
2017-04-07T08:00:59.422Z,135
2017-04-07T08:02:09.808Z,145
2017-04-07T08:03:19.855Z,130
2017-04-07T08:04:30.435Z,120
2017-04-07T08:05:40.774Z,115
2017-04-07T08:06:51.364Z,115
2017-04-07T08:08:01.727Z,115
2017-04-07T08:09:11.773Z,120
2017-04-07T08:10:21.810Z,130
2017-04-07T08:11:32.194Z,140
2017-04-07T08:12:42.209Z,150
2017-04-07T08:13:52.271Z,150
2017-04-07T08:15:02.636Z,150
2017-04-07T08:16:12.993Z,130
2017-04-07T08:17:23.326Z,120
2017-04-07T08:18:33.676Z,130
2017-04-07T08:19:44.035Z,140
2017-04-07T08:20:53.751Z,140
2017-04-07T08:22:04.104Z,145
2017-04-07T08:23:14.147Z,145
2017-04-07T08:24:24.167Z,140
2017-04-07T08:25:34.514Z,150
2017-04-07T08:26:44.239Z,160
2017-04-07T08:27:54.320Z,160
2017-04-07T08:29:04.682Z,165
2017-04-07T08:30:15.036Z,165
2017-04-07T08:31:25.427Z,165
2017-04-07T08:32:35.517Z,165
2017-04-07T08:33:45.974Z,155
2017-04-07T08:34:56.055Z,155
2017-04-07T08:36:06.506Z,155
2017-04-07T08:37:16.630Z,145
2017-04-07T08:38:26.785Z,140
2017-04-07T08:39:37.131Z,125
2017-04-07T08:40:47.478Z,120
2017-04-07T08:41:57.511Z,125
2017-04-07T08:43:07.552Z,125
2017-04-07T08:44:17.890Z,125
2017-04-07T08:45:28.466Z,130
2017-04-07T08:46:38.494Z,125
2017-04-07T08:47:48.834Z,130
2017-04-07T08:48:59.205Z,140
2017-04-07T08:50:09.272Z,145
2017-04-07T08:51:19.595Z,140
2017-04-07T08:52:29.964Z,135
2017-04-07T08:53:39.985Z,135
2017-04-07T08:54:49.723Z,135
2017-04-07T08:56:00.082Z,145
2017-04-07T08:57:10.439Z,150
2017-04-07T08:58:20.799Z,145
2017-04-07T08:59:30.832Z,140
2017-04-07T09:00:41.191Z,135
2017-04-07T09:01:51.534Z,130
2017-04-07T09:03:01.909Z,125
2017-04-07T09:04:11.958Z,130
2017-04-07T09:05:22.001Z,115
2017-04-07T09:06:32.062Z,110
2017-04-07T09:07:42.421Z,115
2017-04-07T09:08:52.785Z,120
2017-04-07T09:10:02.821Z,115
2017-04-07T09:11:12.847Z,115
2017-04-07T09:12:22.949Z,125
2017-04-07T09:13:32.982Z,135
2017-04-07T09:14:43.334Z,150
2017-04-07T09:15:53.682Z,165
2017-04-07T09:17:03.714Z,170
2017-04-07T09:18:13.747Z,180
2017-04-07T09:19:23.777Z,170
2017-04-07T09:20:34.124Z,175
2017-04-07T09:21:44.491Z,175
2017-04-07T09:22:54.541Z,175
2017-04-07T09:24:04.912Z,170
2017-04-07T09:25:14.352Z,170
2017-04-07T09:26:24.385Z,160
2017-04-07T09:27:34.738Z,160
2017-04-07T09:28:45.086Z,160
2017-04-07T09:29:55.439Z,155
2017-04-07T09:31:05.689Z,150
2017-04-07T09:32:15.953Z,150
2017-04-07T09:33:26.025Z,145
2017-04-07T09:34:36.391Z,145
2017-04-07T09:35:46.466Z,145
2017-04-07T09:36:56.834Z,140
2017-04-07T09:38:07.189Z,140
2017-04-07T09:39:17.577Z,135
2017-04-07T09:40:27.939Z,130
2017-04-07T09:41:38.299Z,135
2017-04-07T09:42:48.649Z,140
2017-04-07T09:43:59.154Z,150
2017-04-07T09:45:09.530Z,150
2017-04-07T09:46:20.129Z,140
2017-04-07T09:47:30.743Z,130
2017-04-07T09:48:40.750Z,130
2017-04-07T09:49:50.522Z,130
2017-04-07T09:51:00.879Z,135
2017-04-07T09:52:11.255Z,135
2017-04-07T09:53:21.624Z,140
2017-04-07T09:54:31.997Z,150
2017-04-07T09:55:42.028Z,155
2017-04-07T09:56:52.367Z,150
2017-04-07T09:58:02.726Z,145
2017-04-07T09:59:13.085Z,150
2017-04-07T10:00:23.446Z,150
2017-04-07T10:01:33.804Z,150
2017-04-07T10:02:43.860Z,145
2017-04-07T10:03:53.909Z,150
2017-04-07T10:05:04.292Z,160
2017-04-07T10:06:14.662Z,160
2017-04-07T10:07:25.015Z,170
2017-04-07T10:08:35.074Z,170
2017-04-07T10:09:45.430Z,165
2017-04-07T10:10:55.781Z,165
2017-04-07T10:12:06.192Z,160
2017-04-07T10:13:16.247Z,155
2017-04-07T10:14:26.587Z,150
2017-04-07T10:15:36.935Z,140
2017-04-07T10:16:47.347Z,135
2017-04-07T10:17:57.703Z,135
2017-04-07T10:19:07.423Z,135
2017-04-07T10:20:17.767Z,140
2017-04-07T10:21:28.102Z,160
2017-04-07T10:22:38.456Z,175
2017-04-07T10:23:48.492Z,170
2017-04-07T10:24:58.822Z,160
2017-04-07T10:26:09.186Z,140
2017-04-07T10:27:19.549Z,110
2017-04-07T10:28:29.269Z,105
2017-04-07T10:29:39.300Z,100
2017-04-07T10:30:49.676Z,95
2017-04-07T10:32:00.040Z,90
2017-04-07T10:33:10.087Z,95
2017-04-07T10:34:20.440Z,100
2017-04-07T10:35:30.797Z,115
2017-04-07T10:36:40.870Z,115
2017-04-07T10:37:50.922Z,115
2017-04-07T10:39:01.322Z,115
2017-04-07T10:40:11.686Z,110
2017-04-07T10:41:22.073Z,115
2017-04-07T10:42:32.099Z,115
2017-04-07T10:43:42.421Z,115
2017-04-07T10:44:52.763Z,110
2017-04-07T10:46:03.090Z,110
2017-04-07T10:47:13.439Z,105
2017-04-07T10:48:23.465Z,100
2017-04-07T10:49:33.811Z,95
2017-04-07T10:50:43.850Z,85
2017-04-07T10:51:54.176Z,80
2017-04-07T10:53:04.516Z,80
2017-04-07T10:54:14.849Z,80
2017-04-07T10:55:25.201Z,85
2017-04-07T10:56:34.949Z,100
2017-04-07T10:57:45.310Z,110
2017-04-07T10:58:55.627Z,110
2017-04-07T11:00:05.656Z,105
2017-04-07T11:01:15.992Z,100
2017-04-07T11:02:26.344Z,105
2017-04-07T11:03:36.704Z,100
2017-04-07T11:04:46.768Z,105
2017-04-07T11:05:56.798Z,105
2017-04-07T11:07:07.161Z,125
2017-04-07T11:08:17.486Z,135
2017-04-07T11:09:27.808Z,150
2017-04-07T11:10:38.140Z,155
2017-04-07T11:11:48.166Z,150
2017-04-07T11:12:58.510Z,150
2017-04-07T11:14:08.851Z,140
2017-04-07T11:15:19.181Z,140
2017-04-07T11:16:29.499Z,135
2017-04-07T11:17:39.536Z,130
2017-04-07T11:18:49.868Z,125
2017-04-07T11:20:00.234Z,130
2017-04-07T11:21:10.253Z,135
2017-04-07T11:22:20.597Z,145
2017-04-07T11:23:30.618Z,135
2017-04-07T11:24:40.644Z,135
2017-04-07T11:25:50.992Z,125
2017-04-07T11:27:01.304Z,120
2017-04-07T11:28:11.333Z,120
2017-04-07T11:29:21.677Z,130
2017-04-07T11:30:32.030Z,135
2017-04-07T11:31:42.061Z,145
2017-04-07T11:32:52.392Z,145
2017-04-07T11:34:02.744Z,145
2017-04-07T11:35:12.784Z,145
2017-04-07T11:36:23.133Z,155
2017-04-07T11:37:33.454Z,150
2017-04-07T11:38:43.783Z,140
2017-04-07T11:39:53.809Z,140
2017-04-07T11:41:04.170Z,140
2017-04-07T11:42:13.886Z,140
2017-04-07T11:43:24.477Z,145
2017-04-07T11:44:34.817Z,135
2017-04-07T11:45:44.861Z,135
2017-04-07T11:46:55.193Z,150
2017-04-07T11:48:05.223Z,145
2017-04-07T11:49:15.557Z,140
2017-04-07T11:50:25.608Z,140
2017-04-07T11:51:35.941Z,145
2017-04-07T11:52:46.272Z,140
2017-04-07T11:53:56.288Z,145
2017-04-07T11:55:06.630Z,160
2017-04-07T11:56:16.662Z,165
2017-04-07T11:57:26.379Z,190
2017-04-07T11:58:36.740Z,185
2017-04-07T11:59:46.147Z,185
2017-04-07T12:00:56.520Z,185
2017-04-07T12:02:06.541Z,185
2017-04-07T12:03:16.571Z,165
2017-04-07T12:04:26.900Z,140
2017-04-07T12:05:36.613Z,140
2017-04-07T12:06:46.960Z,150
2017-04-07T12:07:57.304Z,150
2017-04-07T12:09:07.328Z,135
2017-04-07T12:10:17.365Z,135
2017-04-07T12:11:27.956Z,130
2017-04-07T12:12:38.288Z,115
2017-04-07T12:13:48.003Z,105
2017-04-07T12:14:58.031Z,105
2017-04-07T12:16:08.072Z,105
2017-04-07T12:17:18.131Z,105
2017-04-07T12:18:28.461Z,100
2017-04-07T12:19:38.477Z,95
2017-04-07T12:20:48.500Z,95
2017-04-07T12:21:58.867Z,100
2017-04-07T12:23:08.892Z,115
2017-04-07T12:24:18.923Z,105
2017-04-07T12:25:29.265Z,105
2017-04-07T12:26:39.649Z,115
2017-04-07T12:27:50.010Z,110
2017-04-07T12:29:00.355Z,115
2017-04-07T12:30:10.377Z,110
2017-04-07T12:31:20.419Z,105
2017-04-07T12:32:30.479Z,95
2017-04-07T12:33:40.552Z,80
2017-04-07T12:34:50.575Z,70
2017-04-07T12:36:00.931Z,65
2017-04-07T12:37:11.293Z,60
2017-04-07T12:38:21.332Z,60
2017-04-07T12:39:31.659Z,60
2017-04-07T12:40:42.033Z,70
2017-04-07T12:41:52.391Z,70
2017-04-07T12:43:02.740Z,70
2017-04-07T12:44:13.071Z,80
2017-04-07T12:45:23.093Z,70
2017-04-07T12:46:33.467Z,85
2017-04-07T12:47:43.497Z,95
2017-04-07T12:48:53.839Z,95
2017-04-07T12:50:03.886Z,90
2017-04-07T12:51:13.599Z,80
2017-04-07T12:52:23.636Z,100
2017-04-07T12:53:34.109Z,95
2017-04-07T12:54:44.142Z,85
2017-04-07T12:55:53.855Z,110
2017-04-07T12:57:04.219Z,100
2017-04-07T12:58:14.569Z,100
2017-04-07T12:59:24.914Z,95
2017-04-07T13:00:35.259Z,100
2017-04-07T13:01:45.595Z,110
2017-04-07T13:02:55.633Z,100
2017-04-07T13:04:05.974Z,90
2017-04-07T13:05:16.325Z,100
2017-04-07T13:06:26.671Z,105
2017-04-07T13:07:37.011Z,130
2017-04-07T13:08:47.358Z,120
2017-04-07T13:09:57.696Z,120
2017-04-07T13:11:06.802Z,125
2017-04-07T13:12:17.143Z,130
2017-04-07T13:13:26.846Z,125
2017-04-07T13:14:36.862Z,115
2017-04-07T13:15:46.583Z,115
2017-04-07T13:16:56.931Z,120
2017-04-07T13:18:07.294Z,125
2017-04-07T13:19:17.642Z,130
2017-04-07T13:20:27.982Z,130
2017-04-07T13:21:38.333Z,140
2017-04-07T13:22:48.358Z,135
2017-04-07T13:23:58.371Z,135
2017-04-07T13:25:08.100Z,135
2017-04-07T13:26:18.438Z,130
2017-04-07T13:27:28.783Z,125
2017-04-07T13:28:39.158Z,125
2017-04-07T13:29:49.504Z,125
2017-04-07T13:30:59.854Z,125
2017-04-07T13:32:10.197Z,120
2017-04-07T13:33:20.585Z,115
2017-04-07T13:34:30.310Z,120
2017-04-07T13:35:40.015Z,130
2017-04-07T13:36:50.355Z,115
2017-04-07T13:38:00.721Z,105
2017-04-07T13:39:10.742Z,115
2017-04-07T13:40:21.072Z,110
2017-04-07T13:41:31.422Z,105
2017-04-07T13:42:41.464Z,115
2017-04-07T13:43:51.186Z,110
2017-04-07T13:45:01.541Z,110
2017-04-07T13:46:11.579Z,110
2017-04-07T13:47:21.917Z,110
2017-04-07T13:48:32.266Z,125
2017-04-07T13:49:42.595Z,125
2017-04-07T13:50:52.637Z,110
2017-04-07T13:52:02.364Z,105
2017-04-07T13:53:12.385Z,115
2017-04-07T13:54:22.733Z,120
2017-04-07T13:55:32.764Z,110
2017-04-07T13:56:43.087Z,105
2017-04-07T13:57:53.424Z,110
2017-04-07T13:59:03.769Z,105
2017-04-07T14:00:14.128Z,95
2017-04-07T14:01:23.832Z,90
2017-04-07T14:02:33.864Z,95
2017-04-07T14:03:44.217Z,100
2017-04-07T14:04:54.538Z,95
2017-04-07T14:06:04.879Z,100
2017-04-07T14:07:15.250Z,105
2017-04-07T14:08:25.292Z,110
2017-04-07T14:09:35.642Z,120
2017-04-07T14:10:45.993Z,125
2017-04-07T14:11:56.010Z,125
2017-04-07T14:13:06.342Z,130
2017-04-07T14:14:16.719Z,135
2017-04-07T14:15:27.090Z,140
2017-04-07T14:16:37.459Z,140
2017-04-07T14:17:47.813Z,135
2017-04-07T14:18:58.173Z,130
2017-04-07T14:20:08.510Z,125
2017-04-07T14:21:18.557Z,120
2017-04-07T14:22:28.937Z,110
2017-04-07T14:23:39.304Z,95
2017-04-07T14:24:49.646Z,85
2017-04-07T14:25:59.985Z,80
2017-04-07T14:27:10.034Z,85
2017-04-07T14:28:20.362Z,85
2017-04-07T14:29:30.709Z,90
2017-04-07T14:30:40.738Z,85
2017-04-07T14:31:51.095Z,90
2017-04-07T14:33:01.487Z,90
2017-04-07T14:34:11.835Z,90
2017-04-07T14:35:22.176Z,85
2017-04-07T14:36:32.538Z,80
2017-04-07T14:37:42.571Z,70
2017-04-07T14:38:52.601Z,60
2017-04-07T14:40:02.995Z,65
2017-04-07T14:41:13.055Z,50
2017-04-07T14:42:23.397Z,45
2017-04-07T14:43:33.744Z,50
2017-04-07T14:44:43.790Z,45
2017-04-07T14:45:53.804Z,35
2017-04-07T14:47:04.135Z,30
2017-04-07T14:48:14.468Z,30
2017-04-07T14:49:24.819Z,35
2017-04-07T14:50:35.174Z,35
2017-04-07T14:51:45.241Z,35
2017-04-07T14:52:55.290Z,35
2017-04-07T14:54:05.072Z,30
2017-04-07T14:55:15.410Z,30
2017-04-07T14:56:25.427Z,25
2017-04-07T14:57:35.792Z,25
2017-04-07T14:58:46.130Z,25
2017-04-07T14:59:56.465Z,30
2017-04-07T15:01:06.815Z,35
2017-04-07T15:02:17.175Z,40
2017-04-07T15:03:27.517Z,40
2017-04-07T15:04:37.902Z,40
2017-04-07T15:05:48.241Z,45
2017-04-07T15:06:58.280Z,50
2017-04-07T15:08:08.610Z,50
2017-04-07T15:09:18.984Z,50
2017-04-07T15:10:29.313Z,50
2017-04-07T15:11:39.671Z,45
2017-04-07T15:12:50.036Z,45
2017-04-07T15:14:00.400Z,45
2017-04-07T15:15:10.760Z,45
2017-04-07T15:16:21.123Z,45
2017-04-07T15:17:31.453Z,45
2017-04-07T15:18:41.798Z,45
2017-04-07T15:19:52.165Z,45
2017-04-07T15:21:02.513Z,45
2017-04-07T15:22:12.546Z,45
2017-04-07T15:23:22.883Z,45
2017-04-07T15:24:32.949Z,45
2017-04-07T15:25:43.323Z,45
2017-04-07T15:26:53.349Z,45
2017-04-07T15:28:03.072Z,40
2017-04-07T15:29:13.105Z,45
2017-04-07T15:30:23.459Z,45
2017-04-07T15:31:33.807Z,45
2017-04-07T15:32:44.154Z,50
2017-04-07T15:33:54.502Z,50
2017-04-07T15:35:04.825Z,55
2017-04-07T15:36:15.167Z,50
2017-04-07T15:37:25.195Z,45
2017-04-07T15:38:35.233Z,45
2017-04-07T15:39:45.581Z,45
2017-04-07T15:40:55.912Z,45
2017-04-07T15:42:06.256Z,45
2017-04-07T15:43:15.954Z,40
2017-04-07T15:44:25.977Z,45
2017-04-07T15:45:36.303Z,45
2017-04-07T15:46:46.649Z,40
2017-04-07T15:47:56.987Z,40
2017-04-07T15:49:07.332Z,40
2017-04-07T15:50:17.689Z,35
2017-04-07T15:51:28.033Z,35
2017-04-07T15:52:38.379Z,40
2017-04-07T15:53:48.428Z,40
2017-04-07T15:54:58.782Z,45
2017-04-07T15:56:09.116Z,45
2017-04-07T15:57:19.143Z,50
2017-04-07T15:58:29.158Z,50
2017-04-07T15:59:39.491Z,50
2017-04-07T16:00:49.539Z,45
2017-04-07T16:01:58.951Z,45
2017-04-07T16:03:08.983Z,45
2017-04-07T16:04:19.326Z,40
2017-04-07T16:05:29.360Z,40
2017-04-07T16:06:39.376Z,30
2017-04-07T16:07:49.727Z,30
2017-04-07T16:09:00.095Z,25
2017-04-07T16:10:10.116Z,25
2017-04-07T16:11:20.484Z,30
2017-04-07T16:12:30.846Z,25
2017-04-07T16:13:41.198Z,25
2017-04-07T16:14:51.543Z,20
2017-04-07T16:16:01.887Z,25
2017-04-07T16:17:11.915Z,25
2017-04-07T16:18:21.944Z,25
2017-04-07T16:19:31.985Z,25
2017-04-07T16:20:42.046Z,25
2017-04-07T16:21:52.053Z,25
2017-04-07T16:23:02.076Z,25
2017-04-07T16:24:12.412Z,25
2017-04-07T16:25:22.775Z,20
2017-04-07T16:26:32.826Z,20
2017-04-07T16:27:43.161Z,15
2017-04-07T16:28:53.513Z,15
2017-04-07T16:30:03.263Z,15
2017-04-07T16:31:13.621Z,15
2017-04-07T16:32:23.674Z,15
2017-04-07T16:33:33.719Z,20
2017-04-07T16:34:43.782Z,20
2017-04-07T16:35:53.803Z,25
2017-04-07T16:37:03.519Z,20
2017-04-07T16:38:13.886Z,15
2017-04-07T16:39:24.220Z,15
2017-04-07T16:40:34.564Z,15
2017-04-07T16:41:44.892Z,15
2017-04-07T16:42:55.234Z,15
2017-04-07T16:44:05.599Z,10
2017-04-07T16:45:15.945Z,10
2017-04-07T16:46:26.000Z,10
2017-04-07T16:47:36.039Z,10
2017-04-07T16:48:46.431Z,10
2017-04-07T16:49:56.784Z,10
2017-04-07T16:51:06.812Z,10
2017-04-07T16:52:16.877Z,10
2017-04-07T16:53:27.224Z,5
2017-04-07T16:54:37.571Z,10
2017-04-07T16:55:47.933Z,10
2017-04-07T16:56:58.269Z,5
2017-04-07T16:58:08.621Z,5
2017-04-07T16:59:18.976Z,10
2017-04-07T17:00:29.320Z,5
2017-04-07T17:01:39.079Z,5
2017-04-07T17:02:49.425Z,5
2017-04-07T17:03:59.773Z,5
2017-04-07T17:05:09.801Z,5